Decoded Metar for LFOP (ROUEN in FRANCE) (IATA:URO) | Meteo·Mobile Aviation Weather
aviador You're here:

LFOP Decoded Metar

ROUEN in FRANCE
Report Time2018-12-16 18:00:00
UTC Time2018-12-16 18:10:30
Flight Rules lifr LIFR
Wind160° at 11 kt
W.Decomp.*RWY 22: 5.5 kt HW 9.5 kt LCW
RWY 23: 3.8 kt HW 10.3 kt LCW
W.Rank160° ranks 10
Current wind is above 160° avg. (7.2)
Visibility2600 m
Phenomena:Mist
Clouds:Overcast 002 Hf
Ceiling200 ft
Temp05°C (ISA -9)
Dew Point05°C (100% RH)
AAT-0.1°C
QNH1009 hPa
Density Alt-312 ft
Elevation515 ft
Report Wrong Elevation
Raw Report
METAR LFOP 161800Z AUTO 16011KT 2600 BR OVC002 05/05 Q1009 BECMG RA=

Extra information for LFOP:More info

Metar Taf Metar & Taf Last 4 Metars F.Rules Stats Wind Profile Meteogram Temp Stats Airport Information Weather charts Add Link Nearby VenuesMetar ALERT Operation Metar Decoded Social comments